Time;durP1;ratioP1;P1;durP2;ratioP2;P2;SDS_P1;SDS_P2;PMS_P1;PMS_P2;Temp;Humidity;BMP_temperature;BMP_pressure;BME280_temperature;BME280_humidity;BME280_pressure;Samples;Min_cycle;Max_cycle;Signal;HPM_P1;HPM_P2
2020/12/08 00:01:05;;;;;;;19.90;17.10;;;4.60;99.90;;;;;;4975410;28;20207;-51
2020/12/08 00:03:32;;;;;;;21.77;17.90;;;4.60;99.90;;;;;;4975535;28;20590;-53
2020/12/08 00:05:59;;;;;;;20.93;17.70;;;4.70;99.90;;;;;;4975544;28;20238;-51
2020/12/08 00:08:26;;;;;;;23.30;17.97;;;4.70;99.90;;;;;;4975405;28;20586;-48
2020/12/08 00:10:53;;;;;;;21.20;18.87;;;4.70;99.90;;;;;;4975022;28;20637;-47
2020/12/08 00:13:20;;;;;;;22.33;19.10;;;4.70;99.90;;;;;;4975187;28;20307;-47
2020/12/08 00:15:48;;;;;;;22.00;18.20;;;4.70;99.90;;;;;;4974981;28;20716;-47
2020/12/08 00:18:15;;;;;;;22.77;17.73;;;4.60;99.90;;;;;;4974903;28;20250;-47
2020/12/08 00:20:42;;;;;;;23.90;20.13;;;4.50;99.90;;;;;;4975292;28;20298;-49
2020/12/08 00:23:10;;;;;;;21.33;18.57;;;4.40;99.90;;;;;;4975108;28;20297;-47
2020/12/08 00:25:37;;;;;;;22.23;18.53;;;4.40;99.90;;;;;;4975061;28;20238;-52
2020/12/08 00:28:05;;;;;;;22.00;18.63;;;4.40;99.90;;;;;;4975061;28;20238;-48
2020/12/08 00:30:32;;;;;;;21.63;19.03;;;4.40;99.90;;;;;;4974548;28;20800;-50
2020/12/08 00:32:58;;;;;;;20.20;17.90;;;4.40;99.90;;;;;;4975250;28;20242;-48
2020/12/08 00:35:27;;;;;;;24.10;17.83;;;4.40;99.90;;;;;;4975015;28;20309;-47
2020/12/08 00:37:53;;;;;;;21.73;17.77;;;4.50;99.90;;;;;;4974860;28;20305;-47
2020/12/08 00:40:20;;;;;;;22.20;18.17;;;4.50;99.90;;;;;;4974555;28;20638;-49
2020/12/08 00:42:47;;;;;;;22.42;18.67;;;4.60;99.90;;;;;;4974589;28;20245;-51
2020/12/08 00:45:14;;;;;;;21.53;18.47;;;4.60;99.90;;;;;;4974456;28;20768;-48
2020/12/08 00:47:41;;;;;;;22.57;19.03;;;4.50;99.90;;;;;;4974583;28;20491;-46
2020/12/08 00:50:09;;;;;;;22.07;17.93;;;4.50;99.90;;;;;;4974638;28;20262;-46
2020/12/08 00:52:36;;;;;;;21.87;18.10;;;4.60;99.90;;;;;;4974632;28;20258;-50
2020/12/08 00:55:07;;;;;;;22.38;17.75;;;4.60;99.90;;;;;;4974637;28;20222;-50
2020/12/08 00:57:35;;;;;;;24.03;18.93;;;4.60;99.90;;;;;;4974300;28;20301;-46
2020/12/08 01:00:02;;;;;;;22.43;17.83;;;4.50;99.90;;;;;;4974279;28;20286;-47
2020/12/08 01:02:29;;;;;;;23.87;18.07;;;4.50;99.90;;;;;;4973548;28;20253;-45
2020/12/08 01:04:56;;;;;;;21.03;18.23;;;4.50;99.90;;;;;;4974470;28;20289;-45
2020/12/08 01:07:23;;;;;;;23.13;18.43;;;4.50;99.90;;;;;;4974248;28;20249;-44
2020/12/08 01:09:51;;;;;;;22.47;18.37;;;4.50;99.90;;;;;;4974101;28;20206;-46
2020/12/08 01:12:18;;;;;;;22.53;18.27;;;4.50;99.90;;;;;;4974067;28;20301;-45
2020/12/08 01:14:45;;;;;;;22.60;17.63;;;4.50;99.90;;;;;;4974103;28;20757;-45
2020/12/08 01:17:13;;;;;;;19.90;17.20;;;4.50;99.90;;;;;;4974102;28;20226;-47
2020/12/08 01:19:40;;;;;;;21.03;17.47;;;4.60;99.90;;;;;;4974102;28;20269;-47
2020/12/08 01:22:07;;;;;;;21.80;17.33;;;4.60;99.90;;;;;;4974106;28;20238;-46
2020/12/08 01:24:34;;;;;;;19.33;16.07;;;4.60;99.90;;;;;;4974052;28;20530;-45
2020/12/08 01:27:02;;;;;;;23.73;18.07;;;4.50;99.90;;;;;;4974149;28;20280;-47
2020/12/08 01:29:29;;;;;;;23.17;19.07;;;4.60;99.90;;;;;;4974165;28;20273;-45
2020/12/08 01:31:56;;;;;;;22.63;17.90;;;4.60;99.90;;;;;;4973952;28;20608;-45
2020/12/08 01:34:23;;;;;;;20.00;17.20;;;4.50;99.90;;;;;;4973714;28;20277;-45
2020/12/08 01:36:51;;;;;;;22.63;18.23;;;4.50;99.90;;;;;;4973843;28;20258;-48
2020/12/08 01:39:17;;;;;;;21.33;17.27;;;4.50;99.90;;;;;;4973660;28;20736;-52
2020/12/08 01:41:44;;;;;;;22.97;16.73;;;4.50;99.90;;;;;;4973582;28;20604;-46
2020/12/08 01:44:15;;;;;;;20.77;16.67;;;4.50;99.90;;;;;;4973651;28;20210;-46
2020/12/08 01:46:42;;;;;;;22.25;18.67;;;4.60;99.90;;;;;;4973595;28;20225;-47
2020/12/08 01:49:09;;;;;;;20.20;16.53;;;4.60;99.90;;;;;;4973401;28;20313;-47
2020/12/08 01:51:38;;;;;;;21.53;17.33;;;4.60;99.90;;;;;;4973541;28;20362;-45
2020/12/08 01:54:05;;;;;;;21.37;16.93;;;4.60;99.90;;;;;;4973651;28;20211;-45
2020/12/08 01:56:32;;;;;;;20.93;17.27;;;4.50;99.90;;;;;;4973665;28;20317;-46
2020/12/08 01:58:59;;;;;;;22.57;16.83;;;4.50;99.90;;;;;;4973845;28;20558;-45
2020/12/08 02:01:27;;;;;;;23.03;17.77;;;4.50;99.90;;;;;;4973485;28;20230;-50
2020/12/08 02:03:55;;;;;;;21.30;17.13;;;4.50;99.90;;;;;;4973372;28;20301;-48
2020/12/08 02:06:24;;;;;;;21.47;17.03;;;4.50;99.90;;;;;;4973212;28;20206;-49
2020/12/08 02:08:52;;;;;;;19.70;16.17;;;4.50;99.90;;;;;;4973118;28;20301;-50
2020/12/08 02:11:19;;;;;;;21.20;17.27;;;4.50;99.90;;;;;;4973305;28;20235;-44
2020/12/08 02:13:46;;;;;;;21.20;17.30;;;4.60;99.90;;;;;;4973041;28;20357;-47
2020/12/08 02:16:14;;;;;;;20.47;16.53;;;4.60;99.90;;;;;;4973166;28;20246;-50
2020/12/08 02:18:41;;;;;;;21.37;16.63;;;4.60;99.90;;;;;;4973231;28;20211;-47
2020/12/08 02:21:10;;;;;;;21.73;17.63;;;4.50;99.90;;;;;;4973046;28;20269;-45
2020/12/08 02:23:37;;;;;;;20.07;17.20;;;4.50;99.90;;;;;;4972958;28;20214;-48
2020/12/08 02:26:06;;;;;;;22.47;17.13;;;4.50;99.90;;;;;;4973339;28;20301;-45
2020/12/08 02:28:34;;;;;;;20.03;16.57;;;4.50;99.90;;;;;;4973085;28;20254;-50
2020/12/08 02:31:01;;;;;;;21.08;17.02;;;4.50;99.90;;;;;;4972983;28;20721;-47
2020/12/08 02:33:31;;;;;;;19.97;15.93;;;4.50;99.90;;;;;;4972892;28;20217;-47
2020/12/08 02:36:01;;;;;;;20.30;16.10;;;4.50;99.90;;;;;;4973021;28;20214;-48
2020/12/08 02:38:29;;;;;;;21.20;16.83;;;4.50;99.90;;;;;;4972905;28;20269;-48
2020/12/08 02:40:56;;;;;;;19.83;16.87;;;4.50;99.90;;;;;;4972896;28;20213;-48
2020/12/08 02:43:23;;;;;;;19.00;16.17;;;4.60;99.90;;;;;;4972755;28;20421;-51
2020/12/08 02:45:51;;;;;;;23.47;17.40;;;4.50;99.90;;;;;;4972908;28;20211;-56
2020/12/08 02:48:18;;;;;;;17.57;15.23;;;4.60;99.90;;;;;;4972798;28;20301;-55
2020/12/08 02:50:57;;;;;;;18.92;15.45;;;4.50;99.90;;;;;;4972803;28;20261;-54
2020/12/08 02:53:25;;;;;;;21.20;17.23;;;4.40;99.90;;;;;;4972994;28;20218;-55
2020/12/08 02:55:52;;;;;;;20.03;16.17;;;4.40;99.90;;;;;;4972931;28;20230;-52
2020/12/08 02:58:19;;;;;;;20.73;16.60;;;4.40;99.90;;;;;;4972814;28;20214;-47
2020/12/08 03:00:46;;;;;;;18.60;16.10;;;4.40;99.90;;;;;;4972874;28;20256;-45
2020/12/08 03:03:13;;;;;;;19.37;15.63;;;4.30;99.90;;;;;;4973037;28;20207;-45
2020/12/08 03:05:40;;;;;;;21.53;16.27;;;4.30;99.90;;;;;;4972774;28;20297;-44
2020/12/08 03:08:07;;;;;;;18.83;15.73;;;4.30;99.90;;;;;;4972922;28;20577;-48
2020/12/08 03:10:35;;;;;;;19.10;15.40;;;4.30;99.90;;;;;;4972830;28;20234;-48
2020/12/08 03:13:02;;;;;;;19.03;15.73;;;4.30;99.90;;;;;;4972881;28;20215;-48
2020/12/08 03:15:29;;;;;;;21.17;16.93;;;4.30;99.90;;;;;;4972995;28;20210;-45
2020/12/08 03:17:56;;;;;;;20.07;16.23;;;4.40;99.90;;;;;;4972846;28;20243;-46
2020/12/08 03:20:25;;;;;;;19.20;15.52;;;4.40;99.90;;;;;;4972776;28;20305;-49
2020/12/08 03:22:52;;;;;;;20.07;16.57;;;4.50;99.90;;;;;;4972696;28;20235;-46
2020/12/08 03:25:19;;;;;;;20.20;15.27;;;4.50;99.90;;;;;;4973540;28;20294;-50
2020/12/08 03:27:46;;;;;;;18.20;15.50;;;4.50;99.90;;;;;;4975995;28;20265;-46
2020/12/08 03:30:14;;;;;;;20.27;15.57;;;4.50;99.90;;;;;;4976087;28;20293;-50
2020/12/08 03:32:41;;;;;;;21.45;16.27;;;4.40;99.90;;;;;;4975983;28;20293;-46
2020/12/08 03:35:08;;;;;;;17.80;13.97;;;4.40;99.90;;;;;;4976151;28;20242;-47
2020/12/08 03:37:35;;;;;;;18.47;15.17;;;4.30;99.90;;;;;;4975825;28;20301;-46
2020/12/08 03:40:03;;;;;;;19.37;15.57;;;4.30;99.90;;;;;;4975843;28;20210;-52
2020/12/08 03:42:30;;;;;;;19.63;15.63;;;4.40;99.90;;;;;;4975557;28;20234;-48
2020/12/08 03:44:59;;;;;;;20.13;16.57;;;4.40;99.90;;;;;;4975863;28;20736;-44
2020/12/08 03:47:27;;;;;;;17.25;14.50;;;4.50;99.90;;;;;;4975795;28;20214;-44
2020/12/08 03:49:54;;;;;;;17.93;14.10;;;4.50;99.90;;;;;;4975682;28;20222;-48
2020/12/08 03:52:21;;;;;;;19.17;15.37;;;4.50;99.90;;;;;;4975825;28;20289;-46
2020/12/08 03:54:48;;;;;;;21.65;17.05;;;4.40;99.90;;;;;;4975686;28;20215;-50
2020/12/08 03:57:16;;;;;;;22.40;16.73;;;4.40;99.90;;;;;;4975663;28;20265;-48
2020/12/08 03:59:43;;;;;;;21.53;16.30;;;4.30;99.90;;;;;;4975636;28;20309;-48
2020/12/08 04:02:10;;;;;;;20.77;15.13;;;4.20;99.90;;;;;;4975680;28;20243;-52
2020/12/08 04:04:37;;;;;;;21.00;16.57;;;4.10;99.90;;;;;;4975449;28;20381;-49
2020/12/08 04:07:05;;;;;;;21.10;16.57;;;4.10;99.90;;;;;;4975399;28;20305;-46
2020/12/08 04:09:32;;;;;;;22.10;16.60;;;4.10;99.90;;;;;;4975487;28;20614;-49
2020/12/08 04:11:59;;;;;;;21.67;15.83;;;4.10;99.90;;;;;;4975327;28;20253;-46
2020/12/08 04:14:26;;;;;;;22.37;17.20;;;4.10;99.90;;;;;;4975250;28;20218;-48
2020/12/08 04:16:53;;;;;;;22.43;17.37;;;4.10;99.90;;;;;;4975271;28;20211;-48
2020/12/08 04:19:20;;;;;;;22.90;18.23;;;4.20;99.90;;;;;;4978150;28;20238;-46
2020/12/08 04:21:51;;;;;;;22.00;18.13;;;4.30;99.90;;;;;;4979377;28;20661;-46
2020/12/08 04:24:18;;;;;;;22.83;19.47;;;4.20;99.90;;;;;;4975055;28;20246;-47
2020/12/08 04:26:45;;;;;;;25.03;19.97;;;4.20;99.90;;;;;;4975016;28;20223;-46
2020/12/08 04:29:13;;;;;;;23.80;18.57;;;4.20;99.90;;;;;;4975004;28;20249;-49
2020/12/08 04:31:40;;;;;;;22.20;17.80;;;4.20;99.90;;;;;;4974956;28;20227;-45
2020/12/08 04:34:07;;;;;;;24.93;19.47;;;4.20;99.90;;;;;;4974929;28;20273;-44
2020/12/08 04:36:34;;;;;;;21.85;17.35;;;4.20;99.90;;;;;;4974583;28;20222;-47
2020/12/08 04:39:02;;;;;;;23.13;17.98;;;4.10;99.90;;;;;;4974750;28;20254;-46
2020/12/08 04:41:29;;;;;;;23.70;17.83;;;3.90;99.90;;;;;;4974861;28;20302;-48
2020/12/08 04:43:56;;;;;;;22.63;16.70;;;3.80;99.90;;;;;;4974902;28;20321;-46
2020/12/08 04:46:26;;;;;;;21.57;16.67;;;3.90;99.90;;;;;;4974790;28;20211;-49
2020/12/08 04:48:53;;;;;;;23.27;16.33;;;3.90;99.90;;;;;;4974564;28;20282;-46
2020/12/08 04:51:21;;;;;;;21.17;16.90;;;3.90;99.90;;;;;;4974806;28;20658;-48
2020/12/08 04:53:48;;;;;;;22.53;17.87;;;4.00;99.90;;;;;;4974749;28;20207;-48
2020/12/08 04:56:16;;;;;;;21.27;17.00;;;4.00;99.90;;;;;;4974585;28;20261;-49
2020/12/08 04:58:44;;;;;;;21.43;16.93;;;4.00;99.90;;;;;;4974503;28;20301;-51
2020/12/08 05:01:23;;;;;;;23.83;19.40;;;3.90;99.90;;;;;;4974339;28;20298;-50
2020/12/08 05:03:56;;;;;;;24.20;18.53;;;4.00;99.90;;;;;;4974643;28;20210;-53
2020/12/08 05:06:24;;;;;;;23.33;18.23;;;4.10;99.90;;;;;;4974449;28;20214;-53
2020/12/08 05:09:01;;;;;;;25.60;20.37;;;4.10;99.90;;;;;;4974274;28;20233;-48
2020/12/08 05:11:30;;;;;;;23.10;18.87;;;4.20;99.90;;;;;;4974131;28;20277;-45
2020/12/08 05:13:59;;;;;;;23.50;18.10;;;4.10;99.90;;;;;;4973899;28;20214;-43
2020/12/08 05:16:27;;;;;;;20.70;16.63;;;4.10;99.90;;;;;;4974134;28;20217;-43
2020/12/08 05:19:05;;;;;;;21.15;16.40;;;4.10;99.90;;;;;;4974390;28;20214;-48
2020/12/08 05:21:32;;;;;;;20.80;17.27;;;4.00;99.90;;;;;;4974106;28;20615;-43
2020/12/08 05:23:59;;;;;;;20.67;16.90;;;4.00;99.90;;;;;;4973791;28;20217;-46
2020/12/08 05:26:27;;;;;;;21.43;17.00;;;3.90;99.90;;;;;;4973874;28;20302;-46
2020/12/08 05:29:02;;;;;;;23.10;19.20;;;3.90;99.90;;;;;;4974202;28;20214;-43
2020/12/08 05:31:29;;;;;;;21.77;17.27;;;3.80;99.90;;;;;;4973913;28;20365;-43
2020/12/08 05:33:59;;;;;;;25.67;18.60;;;3.80;99.90;;;;;;4974002;28;20266;-44
2020/12/08 05:36:28;;;;;;;22.07;17.27;;;3.90;99.90;;;;;;4973887;28;20293;-44
2020/12/08 05:39:00;;;;;;;24.80;18.33;;;3.90;99.90;;;;;;4973702;28;20293;-48
2020/12/08 05:41:31;;;;;;;25.00;19.73;;;3.90;99.90;;;;;;4973860;28;20229;-48
2020/12/08 05:44:05;;;;;;;23.87;18.70;;;3.80;99.90;;;;;;4973911;28;20325;-48
2020/12/08 05:46:42;;;;;;;28.13;19.10;;;3.80;99.90;;;;;;4973776;28;20290;-53
2020/12/08 05:49:13;;;;;;;26.13;19.73;;;3.70;99.90;;;;;;4972999;28;20218;-46
2020/12/08 05:51:42;;;;;;;26.43;18.93;;;3.80;99.90;;;;;;4973544;28;20772;-47
2020/12/08 05:54:15;;;;;;;28.40;20.43;;;3.80;99.90;;;;;;4973761;28;20207;-53
2020/12/08 05:56:42;;;;;;;25.77;18.70;;;3.80;99.90;;;;;;4973481;28;20768;-45
2020/12/08 05:59:10;;;;;;;26.97;19.93;;;3.80;99.90;;;;;;4973599;28;20326;-53
2020/12/08 06:01:47;;;;;;;26.10;18.37;;;3.80;99.90;;;;;;4973456;28;20685;-52
2020/12/08 06:04:14;;;;;;;26.23;19.07;;;3.80;99.90;;;;;;4973513;28;20266;-46
2020/12/08 06:06:49;;;;;;;25.97;18.87;;;3.70;99.90;;;;;;4973556;28;20285;-48
2020/12/08 06:09:23;;;;;;;22.37;17.30;;;3.70;99.90;;;;;;4974003;28;20214;-45
2020/12/08 06:11:50;;;;;;;24.87;18.40;;;3.80;99.90;;;;;;4973226;28;20452;-50
2020/12/08 06:14:32;;;;;;;25.00;17.70;;;3.80;99.90;;;;;;4973201;28;20298;-50
2020/12/08 06:17:04;;;;;;;25.13;18.93;;;3.80;99.90;;;;;;4973232;28;20665;-47
2020/12/08 06:19:31;;;;;;;22.93;17.63;;;3.80;99.90;;;;;;4973314;28;20210;-46
2020/12/08 06:22:00;;;;;;;26.73;20.00;;;3.70;99.90;;;;;;4973342;28;20222;-46
2020/12/08 06:24:27;;;;;;;26.37;19.57;;;3.60;99.90;;;;;;4972971;28;20306;-46
2020/12/08 06:26:54;;;;;;;26.67;20.23;;;3.50;99.90;;;;;;4973128;28;20608;-49
2020/12/08 06:29:22;;;;;;;27.00;19.00;;;3.40;99.90;;;;;;4973458;28;20238;-49
2020/12/08 06:31:52;;;;;;;23.70;19.57;;;3.40;99.90;;;;;;4973126;28;20227;-45
2020/12/08 06:34:20;;;;;;;26.47;19.60;;;3.50;99.90;;;;;;4973071;28;20246;-46
2020/12/08 06:36:48;;;;;;;28.63;19.30;;;3.50;99.90;;;;;;4972999;28;20242;-51
2020/12/08 06:39:15;;;;;;;28.33;19.80;;;3.50;99.90;;;;;;4973021;28;20211;-46
2020/12/08 06:41:43;;;;;;;32.05;21.05;;;3.60;99.90;;;;;;4973065;28;20241;-49
2020/12/08 06:44:15;;;;;;;26.33;19.60;;;3.60;99.90;;;;;;4973117;28;20211;-47
2020/12/08 06:46:53;;;;;;;27.60;19.73;;;3.70;99.90;;;;;;4972465;28;20214;-45
2020/12/08 06:49:25;;;;;;;28.57;21.17;;;3.70;99.90;;;;;;4973008;28;20217;-45
2020/12/08 06:51:56;;;;;;;29.77;19.77;;;3.70;99.90;;;;;;4972764;28;20227;-47
2020/12/08 06:54:24;;;;;;;22.63;17.30;;;3.70;99.90;;;;;;4973123;28;20294;-48
2020/12/08 06:56:51;;;;;;;24.63;18.00;;;3.60;99.90;;;;;;4973006;28;20305;-49
2020/12/08 06:59:22;;;;;;;25.17;18.43;;;3.60;99.90;;;;;;4973035;28;20207;-47
2020/12/08 07:01:50;;;;;;;24.00;19.13;;;3.70;99.90;;;;;;4976055;28;20243;-47
2020/12/08 07:04:19;;;;;;;27.93;19.33;;;3.80;99.90;;;;;;4976445;28;20214;-48
2020/12/08 07:06:47;;;;;;;30.40;21.97;;;3.80;99.90;;;;;;4976653;28;20246;-49
2020/12/08 07:09:14;;;;;;;27.87;19.00;;;3.80;99.90;;;;;;4976348;28;20250;-48
2020/12/08 07:11:41;;;;;;;25.63;18.13;;;3.70;99.90;;;;;;4976519;28;20232;-45
2020/12/08 07:14:09;;;;;;;25.55;19.05;;;3.70;99.90;;;;;;4976341;28;20320;-50
2020/12/08 07:16:38;;;;;;;26.40;19.43;;;3.70;99.90;;;;;;4976228;28;20207;-46
2020/12/08 07:19:07;;;;;;;44.20;29.57;;;3.60;99.90;;;;;;4976037;28;20621;-48
2020/12/08 07:21:35;;;;;;;25.93;19.53;;;3.50;99.90;;;;;;4976170;28;20626;-48
2020/12/08 07:24:09;;;;;;;27.50;19.23;;;3.20;99.90;;;;;;4976027;28;20221;-47
2020/12/08 07:26:38;;;;;;;26.17;18.80;;;3.20;99.90;;;;;;4976239;28;20309;-49
2020/12/08 07:29:07;;;;;;;29.80;22.00;;;3.30;99.90;;;;;;4975992;28;20238;-47
2020/12/08 07:31:34;;;;;;;32.97;23.13;;;3.40;99.90;;;;;;4975957;28;20234;-47
2020/12/08 07:34:01;;;;;;;28.17;18.80;;;3.50;99.90;;;;;;4976027;28;20302;-46
2020/12/08 07:36:29;;;;;;;26.77;18.67;;;3.50;99.90;;;;;;4976100;28;20289;-49
2020/12/08 07:39:00;;;;;;;26.47;18.53;;;3.60;99.90;;;;;;4976137;28;20311;-47
2020/12/08 07:41:28;;;;;;;25.23;18.13;;;3.60;99.90;;;;;;4975701;28;20207;-49
2020/12/08 07:43:57;;;;;;;27.10;18.57;;;3.50;99.90;;;;;;4975777;28;20215;-48
2020/12/08 07:46:25;;;;;;;23.83;17.77;;;3.50;99.90;;;;;;4975897;28;20257;-48
2020/12/08 07:49:03;;;;;;;23.03;17.43;;;3.50;99.90;;;;;;4975842;28;20710;-50
2020/12/08 07:51:31;;;;;;;21.70;16.43;;;3.60;99.90;;;;;;4975809;28;20231;-46
2020/12/08 07:54:01;;;;;;;24.43;17.73;;;3.60;99.90;;;;;;4975714;28;20218;-46
2020/12/08 07:56:29;;;;;;;20.53;15.83;;;3.50;99.90;;;;;;4975848;28;20211;-47
2020/12/08 07:58:57;;;;;;;23.60;18.10;;;3.50;99.90;;;;;;4976088;28;20305;-50
2020/12/08 08:01:24;;;;;;;24.33;17.93;;;3.50;99.90;;;;;;4975931;28;20279;-46
2020/12/08 08:03:52;;;;;;;23.70;16.53;;;3.60;99.90;;;;;;4976009;28;20643;-46
2020/12/08 08:06:21;;;;;;;20.43;15.37;;;3.60;99.90;;;;;;4975299;28;20214;-52
2020/12/08 08:08:49;;;;;;;18.23;15.13;;;3.70;99.90;;;;;;4975232;28;20287;-46
2020/12/08 08:11:18;;;;;;;26.03;17.80;;;3.70;99.90;;;;;;4974921;28;20293;-46
2020/12/08 08:13:46;;;;;;;25.90;18.60;;;3.70;99.90;;;;;;4975199;28;20215;-49
2020/12/08 08:16:16;;;;;;;24.60;19.27;;;3.80;99.90;;;;;;4975332;28;20211;-50
2020/12/08 08:18:44;;;;;;;25.57;18.30;;;3.80;99.90;;;;;;4975357;28;20214;-46
2020/12/08 08:21:13;;;;;;;26.63;17.90;;;3.90;99.90;;;;;;4975246;28;20519;-48
2020/12/08 08:23:40;;;;;;;26.50;18.80;;;3.90;99.90;;;;;;4974959;28;20214;-49
2020/12/08 08:26:09;;;;;;;25.43;18.33;;;3.90;99.90;;;;;;4975210;28;20586;-49
2020/12/08 08:28:37;;;;;;;23.70;18.03;;;3.90;99.90;;;;;;4975166;28;20238;-48
2020/12/08 08:31:04;;;;;;;22.70;17.20;;;3.80;99.90;;;;;;4975011;28;20622;-47
2020/12/08 08:33:31;;;;;;;30.53;20.47;;;3.70;99.90;;;;;;4974893;28;20356;-52
2020/12/08 08:35:58;;;;;;;23.80;18.17;;;3.80;99.90;;;;;;4974747;28;20240;-48
2020/12/08 08:38:26;;;;;;;22.77;17.97;;;3.80;99.90;;;;;;4974790;28;20770;-50
2020/12/08 08:40:54;;;;;;;23.37;18.83;;;3.90;99.90;;;;;;4974949;28;20306;-47
2020/12/08 08:43:21;;;;;;;26.47;18.17;;;3.90;99.90;;;;;;4974586;28;20238;-50
2020/12/08 08:45:51;;;;;;;23.23;18.73;;;4.00;99.90;;;;;;4974833;28;20218;-48
2020/12/08 08:48:18;;;;;;;21.63;16.53;;;4.00;99.90;;;;;;4974532;28;20222;-48
2020/12/08 08:50:46;;;;;;;23.20;17.40;;;3.90;99.90;;;;;;4974457;28;20310;-47
2020/12/08 08:53:14;;;;;;;22.83;17.23;;;3.90;99.90;;;;;;4974490;28;20324;-49
2020/12/08 08:55:41;;;;;;;21.43;16.80;;;4.00;99.90;;;;;;4974349;28;20269;-50
2020/12/08 08:58:13;;;;;;;23.60;17.07;;;4.00;99.90;;;;;;4974529;28;20215;-47
2020/12/08 09:00:40;;;;;;;22.00;16.73;;;4.10;99.90;;;;;;4974272;28;20211;-49
2020/12/08 09:03:08;;;;;;;21.07;16.97;;;4.20;99.90;;;;;;4974141;28;20568;-47
2020/12/08 09:05:36;;;;;;;22.10;16.30;;;4.20;99.90;;;;;;4974448;28;20219;-48
2020/12/08 09:08:04;;;;;;;23.37;17.73;;;4.30;99.90;;;;;;4974308;28;20210;-48
2020/12/08 09:10:31;;;;;;;22.17;17.10;;;4.30;99.90;;;;;;4974194;28;20222;-47
2020/12/08 09:12:58;;;;;;;20.60;16.00;;;4.40;99.90;;;;;;4974154;28;20571;-49
2020/12/08 09:15:25;;;;;;;19.00;14.93;;;4.50;99.90;;;;;;4974250;28;20215;-47
2020/12/08 09:17:53;;;;;;;19.30;15.30;;;4.60;99.90;;;;;;4974502;28;20277;-47
2020/12/08 09:20:21;;;;;;;21.30;15.40;;;4.70;99.90;;;;;;4974343;28;20261;-48
2020/12/08 09:22:48;;;;;;;27.73;22.00;;;4.70;99.90;;;;;;4972993;28;20246;-48
2020/12/08 09:25:17;;;;;;;25.13;17.70;;;4.50;99.90;;;;;;4974019;28;20313;-46
2020/12/08 09:27:44;;;;;;;20.17;15.70;;;4.40;99.90;;;;;;4974002;28;20330;-47
2020/12/08 09:30:11;;;;;;;22.58;17.77;;;4.50;99.90;;;;;;4983087;28;20297;-55
2020/12/08 09:32:38;;;;;;;20.67;16.27;;;4.50;99.90;;;;;;4993384;28;20268;-50
2020/12/08 09:35:05;;;;;;;22.70;17.07;;;4.70;99.90;;;;;;4976565;28;20301;-49
2020/12/08 09:37:33;;;;;;;23.17;17.17;;;4.70;99.90;;;;;;4973874;28;20254;-47
2020/12/08 09:40:00;;;;;;;21.33;16.67;;;4.80;99.90;;;;;;4973744;28;20297;-48
2020/12/08 09:42:28;;;;;;;23.80;17.52;;;4.80;99.90;;;;;;4973521;28;20245;-48
2020/12/08 09:44:55;;;;;;;22.53;16.40;;;4.90;99.90;;;;;;4973606;28;20306;-50
2020/12/08 09:47:22;;;;;;;21.53;16.57;;;5.00;99.90;;;;;;4973805;28;20210;-46
2020/12/08 09:49:49;;;;;;;21.43;16.97;;;5.10;99.90;;;;;;4973733;28;20234;-52
2020/12/08 09:52:16;;;;;;;23.77;17.80;;;5.10;99.90;;;;;;4973564;28;20230;-51
2020/12/08 09:54:44;;;;;;;23.83;18.13;;;5.10;99.90;;;;;;4973617;28;20293;-53
2020/12/08 09:57:11;;;;;;;22.33;17.47;;;5.20;99.90;;;;;;4973584;28;20226;-48
2020/12/08 09:59:38;;;;;;;19.80;16.23;;;5.20;99.90;;;;;;4973362;28;20533;-47
2020/12/08 10:02:05;;;;;;;23.00;16.43;;;5.30;99.90;;;;;;4973710;28;20242;-54
2020/12/08 10:04:32;;;;;;;19.13;16.30;;;5.40;99.90;;;;;;4973561;28;20214;-49
2020/12/08 10:06:59;;;;;;;21.60;16.57;;;5.40;99.90;;;;;;4973410;28;20250;-53
2020/12/08 10:09:26;;;;;;;20.13;15.37;;;5.60;99.90;;;;;;4973536;28;20210;-52
2020/12/08 10:11:54;;;;;;;20.83;16.40;;;5.70;99.90;;;;;;4973355;28;20310;-50
2020/12/08 10:14:21;;;;;;;21.43;16.47;;;5.70;99.90;;;;;;4973442;28;20237;-50
2020/12/08 10:16:50;;;;;;;17.97;14.67;;;5.70;99.90;;;;;;4973280;28;20253;-51
2020/12/08 10:19:17;;;;;;;20.20;15.93;;;5.70;99.90;;;;;;4973310;28;20222;-49
2020/12/08 10:21:44;;;;;;;20.63;16.00;;;5.80;99.90;;;;;;4973161;28;20305;-51
2020/12/08 10:24:11;;;;;;;20.83;16.20;;;5.90;99.90;;;;;;4973166;28;20211;-52
2020/12/08 10:26:38;;;;;;;18.37;15.53;;;6.00;99.90;;;;;;4973442;28;20219;-52
2020/12/08 10:29:06;;;;;;;19.90;15.80;;;6.00;99.90;;;;;;4973274;28;20245;-52
2020/12/08 10:31:33;;;;;;;21.70;17.20;;;6.10;99.90;;;;;;4973440;28;20207;-49
2020/12/08 10:34:00;;;;;;;20.30;15.73;;;6.10;99.90;;;;;;4973829;28;20246;-55
2020/12/08 10:36:27;;;;;;;20.95;15.55;;;6.10;99.90;;;;;;4977141;28;20222;-52
2020/12/08 10:38:54;;;;;;;17.60;15.67;;;6.10;99.90;;;;;;4977154;28;20301;-51
2020/12/08 10:41:22;;;;;;;19.67;15.77;;;6.10;99.90;;;;;;4977038;28;20214;-50
2020/12/08 10:43:49;;;;;;;19.50;15.43;;;6.10;99.90;;;;;;4976920;28;20660;-49
2020/12/08 10:46:17;;;;;;;18.63;15.20;;;6.20;99.90;;;;;;4977083;28;20269;-51
2020/12/08 10:48:44;;;;;;;20.27;15.57;;;6.20;99.90;;;;;;4976893;28;20310;-49
2020/12/08 10:51:11;;;;;;;20.63;16.85;;;6.20;99.90;;;;;;4976792;28;20218;-52
2020/12/08 10:53:38;;;;;;;20.90;16.03;;;6.10;99.90;;;;;;4976680;28;20293;-53
2020/12/08 10:56:09;;;;;;;20.83;16.23;;;6.00;99.90;;;;;;4976912;28;20211;-54
2020/12/08 10:58:36;;;;;;;19.23;15.10;;;5.90;99.90;;;;;;4976872;28;20217;-50
2020/12/08 11:01:04;;;;;;;17.87;14.87;;;5.90;99.90;;;;;;4976613;28;20210;-52
2020/12/08 11:03:31;;;;;;;18.73;15.57;;;5.80;99.90;;;;;;4977749;28;20262;-49
2020/12/08 11:05:59;;;;;;;18.40;14.93;;;5.90;99.90;;;;;;4976549;28;20266;-52
2020/12/08 11:08:26;;;;;;;22.50;16.80;;;5.90;99.90;;;;;;4976736;28;20210;-53
2020/12/08 11:10:53;;;;;;;21.30;16.37;;;5.90;99.90;;;;;;4976548;28;20238;-50
2020/12/08 11:13:20;;;;;;;22.95;17.02;;;5.90;99.90;;;;;;4976478;28;20227;-51
2020/12/08 11:15:59;;;;;;;22.13;18.27;;;5.80;99.90;;;;;;4976223;28;20669;-51
2020/12/08 11:18:26;;;;;;;22.33;16.20;;;5.80;99.90;;;;;;4976254;28;20219;-51
2020/12/08 11:20:54;;;;;;;19.10;15.60;;;5.90;99.90;;;;;;4976267;28;20608;-48
2020/12/08 11:23:21;;;;;;;19.93;15.30;;;5.90;99.90;;;;;;4976453;28;20203;-53
2020/12/08 11:25:48;;;;;;;18.43;14.63;;;6.00;99.90;;;;;;4976026;28;20253;-48
2020/12/08 11:28:15;;;;;;;20.23;16.47;;;6.10;99.90;;;;;;4976205;28;20227;-53
2020/12/08 11:30:43;;;;;;;20.70;16.48;;;6.10;99.90;;;;;;4976187;28;20317;-53
2020/12/08 11:33:10;;;;;;;22.13;17.47;;;6.10;99.90;;;;;;4975931;28;20222;-47
2020/12/08 11:35:37;;;;;;;26.77;19.05;;;6.00;99.90;;;;;;4976215;28;20234;-47
2020/12/08 11:38:05;;;;;;;24.63;18.38;;;5.90;99.90;;;;;;4976254;28;20294;-50
2020/12/08 11:40:32;;;;;;;21.77;16.23;;;5.80;99.90;;;;;;4976080;28;20211;-50
2020/12/08 11:43:00;;;;;;;21.57;16.63;;;5.80;99.90;;;;;;4975752;28;20238;-48
2020/12/08 11:45:27;;;;;;;20.27;16.13;;;5.70;99.90;;;;;;4975026;28;20673;-50
2020/12/08 11:47:54;;;;;;;19.73;15.57;;;5.70;99.90;;;;;;4975436;28;20214;-53
2020/12/08 11:50:22;;;;;;;20.00;17.10;;;5.70;99.90;;;;;;4975995;28;20270;-49
2020/12/08 11:52:49;;;;;;;20.77;16.20;;;5.70;99.90;;;;;;4975810;28;20281;-49
2020/12/08 11:55:17;;;;;;;21.60;16.60;;;5.80;99.90;;;;;;4975712;28;20273;-50
2020/12/08 11:57:44;;;;;;;20.60;16.30;;;5.80;99.90;;;;;;4975611;28;20666;-51
2020/12/08 12:00:11;;;;;;;25.23;17.73;;;5.80;99.90;;;;;;4975350;28;20270;-47
2020/12/08 12:02:38;;;;;;;25.87;18.13;;;5.70;99.90;;;;;;4975692;28;20210;-50
2020/12/08 12:05:06;;;;;;;24.00;17.97;;;5.60;99.90;;;;;;4975651;28;20215;-48
2020/12/08 12:07:33;;;;;;;25.70;18.90;;;5.60;99.90;;;;;;4975402;28;20219;-53
2020/12/08 12:10:00;;;;;;;24.37;19.73;;;5.70;99.90;;;;;;4975598;28;20241;-51
2020/12/08 12:12:28;;;;;;;26.90;20.53;;;5.70;99.90;;;;;;4975214;28;20258;-49
2020/12/08 12:14:56;;;;;;;28.17;20.97;;;5.60;99.90;;;;;;4975272;28;20207;-52
2020/12/08 12:17:23;;;;;;;25.93;19.23;;;5.60;99.90;;;;;;4975463;28;20297;-48
2020/12/08 12:19:50;;;;;;;25.10;19.20;;;5.70;99.90;;;;;;4975213;28;20673;-53
2020/12/08 12:22:17;;;;;;;19.60;15.90;;;5.80;99.90;;;;;;4974985;28;20752;-53
2020/12/08 12:24:44;;;;;;;20.93;16.07;;;5.80;99.90;;;;;;4975198;28;20294;-51
2020/12/08 12:27:11;;;;;;;19.53;14.77;;;5.80;99.90;;;;;;4974970;28;20305;-51
2020/12/08 12:29:38;;;;;;;18.70;14.60;;;5.80;99.90;;;;;;4975314;28;20301;-51
2020/12/08 12:32:05;;;;;;;21.37;15.87;;;5.90;99.90;;;;;;4975001;28;20215;-49
2020/12/08 12:34:33;;;;;;;22.17;16.07;;;6.00;99.90;;;;;;4975146;28;20358;-52
2020/12/08 12:37:00;;;;;;;23.67;16.50;;;6.10;99.90;;;;;;4975039;28;20238;-49
2020/12/08 12:39:27;;;;;;;20.70;15.43;;;6.10;99.90;;;;;;4974999;28;20215;-52